sensor_id;sensor_type;location;lat;lon;timestamp;P1;durP1;ratioP1;P2;durP2;ratioP2
16520;SDS011;8373;48.110;11.522;2022-12-18T00:01:05;107.50;;;35.00;;
16520;SDS011;8373;48.110;11.522;2022-12-18T00:03:41;120.47;;;36.53;;
16520;SDS011;8373;48.110;11.522;2022-12-18T00:06:08;122.13;;;34.00;;
16520;SDS011;8373;48.110;11.522;2022-12-18T00:08:35;116.90;;;36.67;;
16520;SDS011;8373;48.110;11.522;2022-12-18T00:11:03;104.90;;;34.60;;
16520;SDS011;8373;48.110;11.522;2022-12-18T00:13:30;107.60;;;33.10;;
16520;SDS011;8373;48.110;11.522;2022-12-18T00:16:01;119.87;;;34.47;;
16520;SDS011;8373;48.110;11.522;2022-12-18T00:18:30;133.33;;;35.03;;
16520;SDS011;8373;48.110;11.522;2022-12-18T00:20:58;118.30;;;35.10;;
16520;SDS011;8373;48.110;11.522;2022-12-18T00:23:25;129.30;;;34.80;;
16520;SDS011;8373;48.110;11.522;2022-12-18T00:25:53;118.97;;;36.10;;
16520;SDS011;8373;48.110;11.522;2022-12-18T00:28:20;125.27;;;37.00;;
16520;SDS011;8373;48.110;11.522;2022-12-18T00:30:47;109.57;;;33.27;;
16520;SDS011;8373;48.110;11.522;2022-12-18T00:33:16;130.07;;;35.30;;
16520;SDS011;8373;48.110;11.522;2022-12-18T00:35:44;127.53;;;34.33;;
16520;SDS011;8373;48.110;11.522;2022-12-18T00:38:11;107.00;;;31.90;;
16520;SDS011;8373;48.110;11.522;2022-12-18T00:40:38;115.93;;;33.40;;
16520;SDS011;8373;48.110;11.522;2022-12-18T00:43:05;115.97;;;33.33;;
16520;SDS011;8373;48.110;11.522;2022-12-18T00:45:34;112.93;;;33.30;;
16520;SDS011;8373;48.110;11.522;2022-12-18T00:48:01;114.17;;;35.50;;
16520;SDS011;8373;48.110;11.522;2022-12-18T00:50:28;121.93;;;33.00;;
16520;SDS011;8373;48.110;11.522;2022-12-18T00:52:56;111.13;;;32.63;;
16520;SDS011;8373;48.110;11.522;2022-12-18T00:55:23;104.87;;;35.43;;
16520;SDS011;8373;48.110;11.522;2022-12-18T00:57:51;112.10;;;31.13;;
16520;SDS011;8373;48.110;11.522;2022-12-18T01:00:18;101.97;;;33.10;;
16520;SDS011;8373;48.110;11.522;2022-12-18T01:02:45;97.73;;;33.33;;
16520;SDS011;8373;48.110;11.522;2022-12-18T01:05:12;100.10;;;31.57;;
16520;SDS011;8373;48.110;11.522;2022-12-18T01:07:40;114.17;;;32.30;;
16520;SDS011;8373;48.110;11.522;2022-12-18T01:10:09;104.97;;;29.83;;
16520;SDS011;8373;48.110;11.522;2022-12-18T01:12:38;114.70;;;32.17;;
16520;SDS011;8373;48.110;11.522;2022-12-18T01:15:05;128.50;;;31.20;;
16520;SDS011;8373;48.110;11.522;2022-12-18T01:17:34;118.50;;;31.23;;
16520;SDS011;8373;48.110;11.522;2022-12-18T01:20:01;104.07;;;31.87;;
16520;SDS011;8373;48.110;11.522;2022-12-18T01:22:28;101.73;;;29.93;;
16520;SDS011;8373;48.110;11.522;2022-12-18T01:25:02;119.53;;;31.30;;
16520;SDS011;8373;48.110;11.522;2022-12-18T01:27:32;97.13;;;29.47;;
16520;SDS011;8373;48.110;11.522;2022-12-18T01:29:59;116.93;;;32.50;;
16520;SDS011;8373;48.110;11.522;2022-12-18T01:32:28;87.57;;;28.60;;
16520;SDS011;8373;48.110;11.522;2022-12-18T01:34:56;100.93;;;30.77;;
16520;SDS011;8373;48.110;11.522;2022-12-18T01:37:23;99.03;;;31.20;;
16520;SDS011;8373;48.110;11.522;2022-12-18T01:39:51;103.37;;;32.27;;
16520;SDS011;8373;48.110;11.522;2022-12-18T01:42:19;97.47;;;31.27;;
16520;SDS011;8373;48.110;11.522;2022-12-18T01:44:54;100.63;;;30.17;;
16520;SDS011;8373;48.110;11.522;2022-12-18T01:47:23;84.00;;;27.70;;
16520;SDS011;8373;48.110;11.522;2022-12-18T01:49:53;103.70;;;30.10;;
16520;SDS011;8373;48.110;11.522;2022-12-18T01:52:21;136.20;;;30.57;;
16520;SDS011;8373;48.110;11.522;2022-12-18T01:54:50;100.70;;;32.80;;
16520;SDS011;8373;48.110;11.522;2022-12-18T01:57:18;111.20;;;33.77;;
16520;SDS011;8373;48.110;11.522;2022-12-18T01:59:45;132.23;;;32.13;;
16520;SDS011;8373;48.110;11.522;2022-12-18T02:02:19;98.87;;;31.10;;
16520;SDS011;8373;48.110;11.522;2022-12-18T02:04:47;103.07;;;28.93;;
16520;SDS011;8373;48.110;11.522;2022-12-18T02:07:14;89.73;;;28.43;;
16520;SDS011;8373;48.110;11.522;2022-12-18T02:09:57;112.60;;;32.13;;
16520;SDS011;8373;48.110;11.522;2022-12-18T02:12:29;109.70;;;28.33;;
16520;SDS011;8373;48.110;11.522;2022-12-18T02:15:05;117.30;;;31.80;;
16520;SDS011;8373;48.110;11.522;2022-12-18T02:17:40;113.43;;;32.70;;
16520;SDS011;8373;48.110;11.522;2022-12-18T02:20:13;112.23;;;32.47;;
16520;SDS011;8373;48.110;11.522;2022-12-18T02:22:46;111.60;;;35.27;;
16520;SDS011;8373;48.110;11.522;2022-12-18T02:25:30;118.37;;;34.70;;
16520;SDS011;8373;48.110;11.522;2022-12-18T02:28:09;136.33;;;36.90;;
16520;SDS011;8373;48.110;11.522;2022-12-18T02:30:38;124.87;;;35.50;;
16520;SDS011;8373;48.110;11.522;2022-12-18T02:33:07;128.07;;;33.73;;
16520;SDS011;8373;48.110;11.522;2022-12-18T02:35:36;116.30;;;34.50;;
16520;SDS011;8373;48.110;11.522;2022-12-18T02:38:05;118.67;;;36.83;;
16520;SDS011;8373;48.110;11.522;2022-12-18T02:40:33;133.37;;;36.80;;
16520;SDS011;8373;48.110;11.522;2022-12-18T02:43:08;130.30;;;35.17;;
16520;SDS011;8373;48.110;11.522;2022-12-18T02:45:35;138.87;;;38.07;;
16520;SDS011;8373;48.110;11.522;2022-12-18T02:48:11;134.50;;;36.43;;
16520;SDS011;8373;48.110;11.522;2022-12-18T02:50:41;125.03;;;35.63;;
16520;SDS011;8373;48.110;11.522;2022-12-18T02:53:16;138.47;;;37.00;;
16520;SDS011;8373;48.110;11.522;2022-12-18T02:55:52;149.50;;;37.83;;
16520;SDS011;8373;48.110;11.522;2022-12-18T02:58:32;130.57;;;37.73;;
16520;SDS011;8373;48.110;11.522;2022-12-18T03:01:08;140.93;;;37.43;;
16520;SDS011;8373;48.110;11.522;2022-12-18T03:03:38;127.57;;;38.17;;
16520;SDS011;8373;48.110;11.522;2022-12-18T03:06:10;128.93;;;35.90;;
16520;SDS011;8373;48.110;11.522;2022-12-18T03:08:44;122.37;;;36.00;;
16520;SDS011;8373;48.110;11.522;2022-12-18T03:11:15;131.30;;;36.97;;
16520;SDS011;8373;48.110;11.522;2022-12-18T03:14:03;145.43;;;37.97;;
16520;SDS011;8373;48.110;11.522;2022-12-18T03:16:33;130.27;;;34.90;;
16520;SDS011;8373;48.110;11.522;2022-12-18T03:19:02;124.53;;;34.03;;
16520;SDS011;8373;48.110;11.522;2022-12-18T03:21:33;139.07;;;36.60;;
16520;SDS011;8373;48.110;11.522;2022-12-18T03:24:03;124.57;;;35.63;;
16520;SDS011;8373;48.110;11.522;2022-12-18T03:26:34;137.63;;;34.70;;
16520;SDS011;8373;48.110;11.522;2022-12-18T03:29:06;142.43;;;38.10;;
16520;SDS011;8373;48.110;11.522;2022-12-18T03:31:36;122.47;;;33.40;;
16520;SDS011;8373;48.110;11.522;2022-12-18T03:34:08;139.57;;;37.07;;
16520;SDS011;8373;48.110;11.522;2022-12-18T03:36:39;138.30;;;37.53;;
16520;SDS011;8373;48.110;11.522;2022-12-18T03:39:06;134.23;;;36.43;;
16520;SDS011;8373;48.110;11.522;2022-12-18T03:41:34;122.60;;;36.07;;
16520;SDS011;8373;48.110;11.522;2022-12-18T03:44:12;127.27;;;37.80;;
16520;SDS011;8373;48.110;11.522;2022-12-18T03:46:42;145.93;;;39.37;;
16520;SDS011;8373;48.110;11.522;2022-12-18T03:49:17;111.53;;;35.80;;
16520;SDS011;8373;48.110;11.522;2022-12-18T03:51:52;127.03;;;35.07;;
16520;SDS011;8373;48.110;11.522;2022-12-18T03:54:23;125.07;;;34.50;;
16520;SDS011;8373;48.110;11.522;2022-12-18T03:56:54;125.80;;;34.80;;
16520;SDS011;8373;48.110;11.522;2022-12-18T03:59:25;148.10;;;37.97;;
16520;SDS011;8373;48.110;11.522;2022-12-18T04:01:55;133.90;;;38.43;;
16520;SDS011;8373;48.110;11.522;2022-12-18T04:04:25;143.93;;;34.80;;
16520;SDS011;8373;48.110;11.522;2022-12-18T04:06:54;130.87;;;36.27;;
16520;SDS011;8373;48.110;11.522;2022-12-18T04:09:22;137.03;;;38.40;;
16520;SDS011;8373;48.110;11.522;2022-12-18T04:11:50;142.43;;;36.33;;
16520;SDS011;8373;48.110;11.522;2022-12-18T04:14:18;130.57;;;37.60;;
16520;SDS011;8373;48.110;11.522;2022-12-18T04:16:47;137.60;;;36.40;;
16520;SDS011;8373;48.110;11.522;2022-12-18T04:19:14;122.83;;;35.53;;
16520;SDS011;8373;48.110;11.522;2022-12-18T04:21:41;122.97;;;34.93;;
16520;SDS011;8373;48.110;11.522;2022-12-18T04:24:08;138.97;;;36.90;;
16520;SDS011;8373;48.110;11.522;2022-12-18T04:26:35;123.23;;;36.70;;
16520;SDS011;8373;48.110;11.522;2022-12-18T04:29:03;130.20;;;36.00;;
16520;SDS011;8373;48.110;11.522;2022-12-18T04:31:30;137.73;;;38.07;;
16520;SDS011;8373;48.110;11.522;2022-12-18T04:33:58;140.07;;;36.90;;
16520;SDS011;8373;48.110;11.522;2022-12-18T04:36:25;147.77;;;36.37;;
16520;SDS011;8373;48.110;11.522;2022-12-18T04:38:52;136.67;;;38.37;;
16520;SDS011;8373;48.110;11.522;2022-12-18T04:41:19;134.97;;;39.50;;
16520;SDS011;8373;48.110;11.522;2022-12-18T04:43:46;126.07;;;34.80;;
16520;SDS011;8373;48.110;11.522;2022-12-18T04:46:13;126.10;;;32.93;;
16520;SDS011;8373;48.110;11.522;2022-12-18T04:48:40;115.40;;;32.90;;
16520;SDS011;8373;48.110;11.522;2022-12-18T04:51:08;131.37;;;38.50;;
16520;SDS011;8373;48.110;11.522;2022-12-18T04:53:35;124.37;;;36.57;;
16520;SDS011;8373;48.110;11.522;2022-12-18T04:56:03;148.67;;;35.23;;
16520;SDS011;8373;48.110;11.522;2022-12-18T04:58:31;132.20;;;37.83;;
16520;SDS011;8373;48.110;11.522;2022-12-18T05:00:58;142.57;;;35.73;;
16520;SDS011;8373;48.110;11.522;2022-12-18T05:03:25;117.30;;;35.37;;
16520;SDS011;8373;48.110;11.522;2022-12-18T05:05:52;124.57;;;36.47;;
16520;SDS011;8373;48.110;11.522;2022-12-18T05:08:21;136.73;;;37.70;;
16520;SDS011;8373;48.110;11.522;2022-12-18T05:10:48;131.37;;;36.93;;
16520;SDS011;8373;48.110;11.522;2022-12-18T05:13:15;115.13;;;33.43;;
16520;SDS011;8373;48.110;11.522;2022-12-18T05:15:42;102.07;;;33.00;;
16520;SDS011;8373;48.110;11.522;2022-12-18T05:18:17;121.70;;;35.50;;
16520;SDS011;8373;48.110;11.522;2022-12-18T05:20:44;112.50;;;35.73;;
16520;SDS011;8373;48.110;11.522;2022-12-18T05:23:11;111.17;;;34.50;;
16520;SDS011;8373;48.110;11.522;2022-12-18T05:25:39;121.03;;;34.83;;
16520;SDS011;8373;48.110;11.522;2022-12-18T05:28:06;113.57;;;32.77;;
16520;SDS011;8373;48.110;11.522;2022-12-18T05:30:33;118.10;;;34.13;;
16520;SDS011;8373;48.110;11.522;2022-12-18T05:33:00;107.13;;;34.03;;
16520;SDS011;8373;48.110;11.522;2022-12-18T05:35:27;106.53;;;30.03;;
16520;SDS011;8373;48.110;11.522;2022-12-18T05:37:54;97.43;;;31.57;;
16520;SDS011;8373;48.110;11.522;2022-12-18T05:40:21;127.00;;;33.90;;
16520;SDS011;8373;48.110;11.522;2022-12-18T05:42:50;117.70;;;31.90;;
16520;SDS011;8373;48.110;11.522;2022-12-18T05:45:17;123.83;;;34.37;;
16520;SDS011;8373;48.110;11.522;2022-12-18T05:47:43;97.57;;;28.40;;
16520;SDS011;8373;48.110;11.522;2022-12-18T05:50:11;98.37;;;30.17;;
16520;SDS011;8373;48.110;11.522;2022-12-18T05:52:37;108.50;;;31.37;;
16520;SDS011;8373;48.110;11.522;2022-12-18T05:55:05;108.33;;;33.87;;
16520;SDS011;8373;48.110;11.522;2022-12-18T05:57:33;122.87;;;33.80;;
16520;SDS011;8373;48.110;11.522;2022-12-18T06:00:01;108.07;;;31.57;;
16520;SDS011;8373;48.110;11.522;2022-12-18T06:02:29;120.67;;;34.53;;
16520;SDS011;8373;48.110;11.522;2022-12-18T06:04:56;121.27;;;32.27;;
16520;SDS011;8373;48.110;11.522;2022-12-18T06:07:23;102.13;;;29.53;;
16520;SDS011;8373;48.110;11.522;2022-12-18T06:09:50;109.63;;;32.70;;
16520;SDS011;8373;48.110;11.522;2022-12-18T06:12:17;112.10;;;31.83;;
16520;SDS011;8373;48.110;11.522;2022-12-18T06:14:44;104.00;;;28.77;;
16520;SDS011;8373;48.110;11.522;2022-12-18T06:17:12;99.50;;;28.93;;
16520;SDS011;8373;48.110;11.522;2022-12-18T06:19:39;95.50;;;29.13;;
16520;SDS011;8373;48.110;11.522;2022-12-18T06:22:06;107.60;;;33.70;;
16520;SDS011;8373;48.110;11.522;2022-12-18T06:24:33;131.10;;;35.33;;
16520;SDS011;8373;48.110;11.522;2022-12-18T06:27:00;114.07;;;35.50;;
16520;SDS011;8373;48.110;11.522;2022-12-18T06:29:27;118.23;;;33.63;;
16520;SDS011;8373;48.110;11.522;2022-12-18T06:31:54;102.97;;;31.70;;
16520;SDS011;8373;48.110;11.522;2022-12-18T06:34:23;124.90;;;32.17;;
16520;SDS011;8373;48.110;11.522;2022-12-18T06:36:50;117.77;;;34.60;;
16520;SDS011;8373;48.110;11.522;2022-12-18T06:39:17;115.53;;;32.50;;
16520;SDS011;8373;48.110;11.522;2022-12-18T06:41:44;111.43;;;33.83;;
16520;SDS011;8373;48.110;11.522;2022-12-18T06:44:14;107.43;;;29.70;;
16520;SDS011;8373;48.110;11.522;2022-12-18T06:46:41;105.83;;;30.67;;
16520;SDS011;8373;48.110;11.522;2022-12-18T06:49:08;96.33;;;31.87;;
16520;SDS011;8373;48.110;11.522;2022-12-18T06:51:37;94.87;;;30.50;;
16520;SDS011;8373;48.110;11.522;2022-12-18T06:54:04;91.00;;;27.90;;
16520;SDS011;8373;48.110;11.522;2022-12-18T06:56:31;94.70;;;29.80;;
16520;SDS011;8373;48.110;11.522;2022-12-18T06:58:59;100.87;;;28.47;;
16520;SDS011;8373;48.110;11.522;2022-12-18T07:01:26;103.87;;;32.63;;
16520;SDS011;8373;48.110;11.522;2022-12-18T07:03:54;96.60;;;32.23;;
16520;SDS011;8373;48.110;11.522;2022-12-18T07:06:23;118.93;;;31.47;;
16520;SDS011;8373;48.110;11.522;2022-12-18T07:08:53;116.20;;;34.57;;
16520;SDS011;8373;48.110;11.522;2022-12-18T07:22:03;105.50;;;30.93;;
16520;SDS011;8373;48.110;11.522;2022-12-18T07:24:33;98.70;;;30.23;;
16520;SDS011;8373;48.110;11.522;2022-12-18T07:27:00;112.60;;;30.63;;
16520;SDS011;8373;48.110;11.522;2022-12-18T07:29:27;93.90;;;32.07;;
16520;SDS011;8373;48.110;11.522;2022-12-18T07:31:54;116.30;;;31.80;;
16520;SDS011;8373;48.110;11.522;2022-12-18T07:34:23;109.13;;;31.70;;
16520;SDS011;8373;48.110;11.522;2022-12-18T07:36:50;110.60;;;32.87;;
16520;SDS011;8373;48.110;11.522;2022-12-18T07:39:17;100.80;;;30.67;;
16520;SDS011;8373;48.110;11.522;2022-12-18T07:41:46;107.00;;;31.83;;
16520;SDS011;8373;48.110;11.522;2022-12-18T07:44:33;94.87;;;29.60;;
16520;SDS011;8373;48.110;11.522;2022-12-18T07:47:00;110.47;;;30.00;;
16520;SDS011;8373;48.110;11.522;2022-12-18T07:49:27;92.67;;;31.23;;
16520;SDS011;8373;48.110;11.522;2022-12-18T07:51:54;111.10;;;31.23;;
16520;SDS011;8373;48.110;11.522;2022-12-18T07:54:22;111.43;;;32.90;;
16520;SDS011;8373;48.110;11.522;2022-12-18T07:56:51;98.30;;;29.30;;
16520;SDS011;8373;48.110;11.522;2022-12-18T07:59:18;122.33;;;32.60;;
16520;SDS011;8373;48.110;11.522;2022-12-18T08:01:45;110.83;;;30.83;;
16520;SDS011;8373;48.110;11.522;2022-12-18T08:04:12;95.23;;;27.93;;
16520;SDS011;8373;48.110;11.522;2022-12-18T08:06:39;110.87;;;30.43;;
16520;SDS011;8373;48.110;11.522;2022-12-18T08:09:06;106.03;;;31.27;;
16520;SDS011;8373;48.110;11.522;2022-12-18T08:11:33;109.57;;;30.30;;
16520;SDS011;8373;48.110;11.522;2022-12-18T08:14:02;109.77;;;32.53;;
16520;SDS011;8373;48.110;11.522;2022-12-18T08:16:29;105.90;;;32.07;;
16520;SDS011;8373;48.110;11.522;2022-12-18T08:18:56;111.67;;;31.07;;
16520;SDS011;8373;48.110;11.522;2022-12-18T08:21:24;94.03;;;29.20;;
16520;SDS011;8373;48.110;11.522;2022-12-18T08:23:53;93.53;;;28.57;;
16520;SDS011;8373;48.110;11.522;2022-12-18T08:26:21;117.03;;;31.70;;
16520;SDS011;8373;48.110;11.522;2022-12-18T08:28:49;97.57;;;30.90;;
16520;SDS011;8373;48.110;11.522;2022-12-18T08:31:17;101.03;;;27.73;;
16520;SDS011;8373;48.110;11.522;2022-12-18T08:33:45;101.63;;;29.17;;
16520;SDS011;8373;48.110;11.522;2022-12-18T08:36:15;92.07;;;29.20;;
16520;SDS011;8373;48.110;11.522;2022-12-18T08:38:43;112.23;;;31.03;;
16520;SDS011;8373;48.110;11.522;2022-12-18T08:41:10;124.50;;;31.60;;
16520;SDS011;8373;48.110;11.522;2022-12-18T08:43:38;98.57;;;28.03;;
16520;SDS011;8373;48.110;11.522;2022-12-18T08:46:25;91.57;;;31.90;;
16520;SDS011;8373;48.110;11.522;2022-12-18T08:48:53;108.60;;;30.33;;
16520;SDS011;8373;48.110;11.522;2022-12-18T08:51:21;110.10;;;32.73;;
16520;SDS011;8373;48.110;11.522;2022-12-18T08:53:48;94.10;;;29.20;;
16520;SDS011;8373;48.110;11.522;2022-12-18T08:56:15;87.33;;;27.30;;
16520;SDS011;8373;48.110;11.522;2022-12-18T08:58:42;79.13;;;28.17;;
16520;SDS011;8373;48.110;11.522;2022-12-18T09:01:10;95.80;;;29.17;;
16520;SDS011;8373;48.110;11.522;2022-12-18T09:03:39;88.00;;;25.27;;
16520;SDS011;8373;48.110;11.522;2022-12-18T09:06:07;96.23;;;27.37;;
16520;SDS011;8373;48.110;11.522;2022-12-18T09:08:35;85.33;;;27.33;;
16520;SDS011;8373;48.110;11.522;2022-12-18T09:11:02;106.90;;;33.93;;
16520;SDS011;8373;48.110;11.522;2022-12-18T09:13:30;101.10;;;29.77;;
16520;SDS011;8373;48.110;11.522;2022-12-18T09:15:57;94.70;;;29.33;;
16520;SDS011;8373;48.110;11.522;2022-12-18T09:18:24;85.33;;;28.60;;
16520;SDS011;8373;48.110;11.522;2022-12-18T09:20:52;97.63;;;30.20;;
16520;SDS011;8373;48.110;11.522;2022-12-18T09:23:20;86.33;;;28.70;;
16520;SDS011;8373;48.110;11.522;2022-12-18T09:25:47;91.27;;;29.73;;
16520;SDS011;8373;48.110;11.522;2022-12-18T09:28:15;107.77;;;29.07;;
16520;SDS011;8373;48.110;11.522;2022-12-18T09:30:44;101.37;;;29.80;;
16520;SDS011;8373;48.110;11.522;2022-12-18T09:33:13;88.83;;;29.50;;
16520;SDS011;8373;48.110;11.522;2022-12-18T09:35:41;85.77;;;26.57;;
16520;SDS011;8373;48.110;11.522;2022-12-18T09:38:11;99.93;;;28.90;;
16520;SDS011;8373;48.110;11.522;2022-12-18T09:40:41;87.07;;;28.57;;
16520;SDS011;8373;48.110;11.522;2022-12-18T09:43:13;101.87;;;29.63;;
16520;SDS011;8373;48.110;11.522;2022-12-18T09:45:43;92.97;;;27.80;;
16520;SDS011;8373;48.110;11.522;2022-12-18T09:48:15;85.67;;;27.40;;
16520;SDS011;8373;48.110;11.522;2022-12-18T09:50:47;76.63;;;24.77;;
16520;SDS011;8373;48.110;11.522;2022-12-18T09:53:19;89.00;;;27.97;;
16520;SDS011;8373;48.110;11.522;2022-12-18T09:55:48;86.20;;;26.97;;
16520;SDS011;8373;48.110;11.522;2022-12-18T09:58:20;84.87;;;26.77;;
16520;SDS011;8373;48.110;11.522;2022-12-18T10:00:54;90.60;;;25.67;;
16520;SDS011;8373;48.110;11.522;2022-12-18T10:03:21;83.53;;;26.83;;
16520;SDS011;8373;48.110;11.522;2022-12-18T10:05:51;88.80;;;25.50;;
16520;SDS011;8373;48.110;11.522;2022-12-18T10:08:30;89.30;;;27.67;;
16520;SDS011;8373;48.110;11.522;2022-12-18T10:11:10;98.07;;;27.90;;
16520;SDS011;8373;48.110;11.522;2022-12-18T10:13:49;91.90;;;27.60;;
16520;SDS011;8373;48.110;11.522;2022-12-18T10:16:22;99.63;;;27.27;;
16520;SDS011;8373;48.110;11.522;2022-12-18T10:18:59;91.23;;;26.23;;
16520;SDS011;8373;48.110;11.522;2022-12-18T10:21:39;93.40;;;24.97;;
16520;SDS011;8373;48.110;11.522;2022-12-18T10:24:14;86.07;;;26.00;;
16520;SDS011;8373;48.110;11.522;2022-12-18T10:26:47;87.53;;;28.10;;
16520;SDS011;8373;48.110;11.522;2022-12-18T10:29:15;81.67;;;27.43;;
16520;SDS011;8373;48.110;11.522;2022-12-18T10:31:43;76.57;;;25.50;;
16520;SDS011;8373;48.110;11.522;2022-12-18T10:34:10;85.47;;;26.00;;
16520;SDS011;8373;48.110;11.522;2022-12-18T10:36:40;88.33;;;25.70;;
16520;SDS011;8373;48.110;11.522;2022-12-18T10:39:16;94.57;;;25.77;;
16520;SDS011;8373;48.110;11.522;2022-12-18T10:41:45;96.37;;;27.57;;
16520;SDS011;8373;48.110;11.522;2022-12-18T10:44:16;88.33;;;28.17;;
16520;SDS011;8373;48.110;11.522;2022-12-18T10:46:45;86.00;;;26.70;;
16520;SDS011;8373;48.110;11.522;2022-12-18T10:49:18;89.50;;;28.07;;
16520;SDS011;8373;48.110;11.522;2022-12-18T10:51:48;85.07;;;26.27;;
16520;SDS011;8373;48.110;11.522;2022-12-18T10:54:18;79.67;;;25.70;;
16520;SDS011;8373;48.110;11.522;2022-12-18T10:56:48;84.17;;;26.53;;
16520;SDS011;8373;48.110;11.522;2022-12-18T10:59:16;81.83;;;26.10;;
16520;SDS011;8373;48.110;11.522;2022-12-18T11:01:47;99.50;;;28.33;;
16520;SDS011;8373;48.110;11.522;2022-12-18T11:04:17;87.67;;;28.47;;
16520;SDS011;8373;48.110;11.522;2022-12-18T11:06:57;79.87;;;27.17;;
16520;SDS011;8373;48.110;11.522;2022-12-18T11:09:27;95.90;;;27.30;;
16520;SDS011;8373;48.110;11.522;2022-12-18T11:11:57;93.57;;;25.73;;
16520;SDS011;8373;48.110;11.522;2022-12-18T11:14:27;98.17;;;26.97;;
16520;SDS011;8373;48.110;11.522;2022-12-18T11:16:57;81.20;;;27.27;;
16520;SDS011;8373;48.110;11.522;2022-12-18T11:19:30;97.07;;;27.70;;
16520;SDS011;8373;48.110;11.522;2022-12-18T11:22:00;86.13;;;25.87;;
16520;SDS011;8373;48.110;11.522;2022-12-18T11:24:31;81.73;;;26.73;;
16520;SDS011;8373;48.110;11.522;2022-12-18T11:27:02;78.63;;;24.80;;
16520;SDS011;8373;48.110;11.522;2022-12-18T11:29:32;87.70;;;27.33;;
16520;SDS011;8373;48.110;11.522;2022-12-18T11:32:13;100.53;;;26.03;;
16520;SDS011;8373;48.110;11.522;2022-12-18T11:35:12;90.87;;;26.83;;
16520;SDS011;8373;48.110;11.522;2022-12-18T11:37:45;83.20;;;26.17;;
16520;SDS011;8373;48.110;11.522;2022-12-18T11:40:17;95.13;;;26.20;;
16520;SDS011;8373;48.110;11.522;2022-12-18T11:42:48;72.17;;;23.20;;
16520;SDS011;8373;48.110;11.522;2022-12-18T11:45:24;81.30;;;24.07;;
16520;SDS011;8373;48.110;11.522;2022-12-18T11:47:56;63.20;;;23.40;;
16520;SDS011;8373;48.110;11.522;2022-12-18T11:50:30;80.47;;;25.73;;
16520;SDS011;8373;48.110;11.522;2022-12-18T11:53:09;70.33;;;22.90;;
16520;SDS011;8373;48.110;11.522;2022-12-18T11:55:40;90.17;;;25.70;;
16520;SDS011;8373;48.110;11.522;2022-12-18T11:58:15;86.93;;;26.20;;
16520;SDS011;8373;48.110;11.522;2022-12-18T12:00:55;83.97;;;24.40;;
16520;SDS011;8373;48.110;11.522;2022-12-18T12:03:37;90.80;;;24.97;;
16520;SDS011;8373;48.110;11.522;2022-12-18T12:06:15;74.77;;;24.80;;
16520;SDS011;8373;48.110;11.522;2022-12-18T12:09:00;88.47;;;24.17;;
16520;SDS011;8373;48.110;11.522;2022-12-18T12:11:37;87.23;;;27.73;;
16520;SDS011;8373;48.110;11.522;2022-12-18T12:14:21;72.27;;;24.40;;
16520;SDS011;8373;48.110;11.522;2022-12-18T12:17:07;76.13;;;25.03;;
16520;SDS011;8373;48.110;11.522;2022-12-18T12:19:43;88.80;;;24.60;;
16520;SDS011;8373;48.110;11.522;2022-12-18T12:22:19;74.20;;;24.43;;
16520;SDS011;8373;48.110;11.522;2022-12-18T12:24:55;90.03;;;26.13;;
16520;SDS011;8373;48.110;11.522;2022-12-18T12:27:35;75.37;;;25.13;;
16520;SDS011;8373;48.110;11.522;2022-12-18T12:30:15;86.17;;;25.33;;
16520;SDS011;8373;48.110;11.522;2022-12-18T12:32:49;93.00;;;27.23;;
16520;SDS011;8373;48.110;11.522;2022-12-18T12:35:33;88.83;;;28.20;;
16520;SDS011;8373;48.110;11.522;2022-12-18T12:38:11;83.23;;;25.70;;
16520;SDS011;8373;48.110;11.522;2022-12-18T12:40:41;103.83;;;26.27;;
16520;SDS011;8373;48.110;11.522;2022-12-18T12:43:16;82.10;;;27.70;;
16520;SDS011;8373;48.110;11.522;2022-12-18T12:45:50;81.53;;;23.87;;
16520;SDS011;8373;48.110;11.522;2022-12-18T12:48:24;77.53;;;24.63;;
16520;SDS011;8373;48.110;11.522;2022-12-18T12:51:07;90.17;;;26.83;;
16520;SDS011;8373;48.110;11.522;2022-12-18T12:53:40;93.43;;;25.70;;
16520;SDS011;8373;48.110;11.522;2022-12-18T12:56:08;89.57;;;26.77;;
16520;SDS011;8373;48.110;11.522;2022-12-18T12:58:41;93.43;;;28.33;;
16520;SDS011;8373;48.110;11.522;2022-12-18T13:01:22;78.80;;;26.90;;
16520;SDS011;8373;48.110;11.522;2022-12-18T13:03:56;74.07;;;26.40;;
16520;SDS011;8373;48.110;11.522;2022-12-18T13:06:33;76.13;;;22.70;;
16520;SDS011;8373;48.110;11.522;2022-12-18T13:09:09;84.93;;;24.70;;
16520;SDS011;8373;48.110;11.522;2022-12-18T13:11:36;83.93;;;26.67;;
16520;SDS011;8373;48.110;11.522;2022-12-18T13:14:31;81.87;;;23.20;;
16520;SDS011;8373;48.110;11.522;2022-12-18T13:17:17;84.77;;;25.30;;
16520;SDS011;8373;48.110;11.522;2022-12-18T13:20:09;105.67;;;27.10;;
16520;SDS011;8373;48.110;11.522;2022-12-18T13:22:38;80.13;;;26.33;;
16520;SDS011;8373;48.110;11.522;2022-12-18T13:25:32;83.50;;;26.20;;
16520;SDS011;8373;48.110;11.522;2022-12-18T13:28:03;94.33;;;24.73;;
16520;SDS011;8373;48.110;11.522;2022-12-18T13:30:44;86.80;;;23.93;;
16520;SDS011;8373;48.110;11.522;2022-12-18T13:36:32;70.27;;;23.77;;
16520;SDS011;8373;48.110;11.522;2022-12-18T13:39:11;80.23;;;25.97;;
16520;SDS011;8373;48.110;11.522;2022-12-18T13:48:23;73.97;;;24.40;;
16520;SDS011;8373;48.110;11.522;2022-12-18T13:50:57;86.63;;;25.80;;
16520;SDS011;8373;48.110;11.522;2022-12-18T13:53:28;80.10;;;23.80;;
16520;SDS011;8373;48.110;11.522;2022-12-18T13:55:58;78.97;;;23.03;;
16520;SDS011;8373;48.110;11.522;2022-12-18T13:58:25;82.83;;;26.37;;
16520;SDS011;8373;48.110;11.522;2022-12-18T14:00:53;84.07;;;25.03;;
16520;SDS011;8373;48.110;11.522;2022-12-18T14:03:21;83.40;;;25.83;;
16520;SDS011;8373;48.110;11.522;2022-12-18T14:05:53;83.50;;;26.60;;
16520;SDS011;8373;48.110;11.522;2022-12-18T14:08:22;74.87;;;25.63;;
16520;SDS011;8373;48.110;11.522;2022-12-18T14:10:53;88.70;;;25.93;;
16520;SDS011;8373;48.110;11.522;2022-12-18T14:13:23;90.93;;;25.73;;
16520;SDS011;8373;48.110;11.522;2022-12-18T14:15:54;82.17;;;27.27;;
16520;SDS011;8373;48.110;11.522;2022-12-18T14:18:24;84.27;;;26.40;;
16520;SDS011;8373;48.110;11.522;2022-12-18T14:20:56;89.03;;;29.80;;
16520;SDS011;8373;48.110;11.522;2022-12-18T14:23:26;74.33;;;24.97;;
16520;SDS011;8373;48.110;11.522;2022-12-18T14:25:58;83.40;;;27.10;;
16520;SDS011;8373;48.110;11.522;2022-12-18T14:28:25;76.33;;;24.37;;
16520;SDS011;8373;48.110;11.522;2022-12-18T14:30:53;77.10;;;25.70;;
16520;SDS011;8373;48.110;11.522;2022-12-18T14:33:22;91.77;;;29.43;;
16520;SDS011;8373;48.110;11.522;2022-12-18T14:35:52;84.73;;;26.40;;
16520;SDS011;8373;48.110;11.522;2022-12-18T14:38:22;86.47;;;26.30;;
16520;SDS011;8373;48.110;11.522;2022-12-18T14:40:52;79.87;;;25.17;;
16520;SDS011;8373;48.110;11.522;2022-12-18T14:43:19;92.27;;;26.00;;
16520;SDS011;8373;48.110;11.522;2022-12-18T14:45:47;93.50;;;26.63;;
16520;SDS011;8373;48.110;11.522;2022-12-18T14:48:16;121.13;;;28.67;;
16520;SDS011;8373;48.110;11.522;2022-12-18T14:50:53;79.37;;;26.30;;
16520;SDS011;8373;48.110;11.522;2022-12-18T14:53:22;78.90;;;26.83;;